createdAt,value
2022-09-11T00:01:40.856Z,15.40
2022-09-11T00:04:09.386Z,15.40
2022-09-11T00:06:37.346Z,15.40
2022-09-11T00:09:07.461Z,15.30
2022-09-11T00:11:39.534Z,15.20
2022-09-11T00:14:10.343Z,15.20
2022-09-11T00:16:41.241Z,15.20
2022-09-11T00:19:11.447Z,15.10
2022-09-11T00:21:39.773Z,15.20
2022-09-11T00:24:10.242Z,15.20
2022-09-11T00:26:38.681Z,15.20
2022-09-11T00:29:08.102Z,15.10
2022-09-11T00:31:36.305Z,15.20
2022-09-11T00:34:04.308Z,15.20
2022-09-11T00:36:32.705Z,15.20
2022-09-11T00:39:01.229Z,15.20
2022-09-11T00:41:32.325Z,15.20
2022-09-11T00:44:03.235Z,15.30
2022-09-11T00:46:39.850Z,15.20
2022-09-11T00:49:22.981Z,15.10
2022-09-11T00:51:55.055Z,15.20
2022-09-11T00:54:31.470Z,15.20
2022-09-11T00:57:03.755Z,15.10
2022-09-11T00:59:33.309Z,15.00
2022-09-11T01:02:03.394Z,15.10
2022-09-11T01:04:33.146Z,15.10
2022-09-11T01:07:02.588Z,15.20
2022-09-11T01:09:34.059Z,15.20
2022-09-11T01:12:09.334Z,15.20
2022-09-11T01:14:45.496Z,15.20
2022-09-11T01:17:27.927Z,15.20
2022-09-11T01:20:26.535Z,15.20
2022-09-11T01:23:26.278Z,15.10
2022-09-11T01:26:13.243Z,15.10
2022-09-11T01:28:51.337Z,15.00
2022-09-11T01:31:25.155Z,15.00
2022-09-11T01:33:59.664Z,15.00
2022-09-11T01:36:31.568Z,15.20
2022-09-11T01:39:01.000Z,15.20
2022-09-11T01:41:33.110Z,15.30
2022-09-11T01:44:07.292Z,15.20
2022-09-11T01:46:41.126Z,15.20
2022-09-11T01:49:14.720Z,15.10
2022-09-11T01:51:43.070Z,15.20
2022-09-11T01:54:14.796Z,15.20
2022-09-11T01:56:49.323Z,15.20
2022-09-11T01:59:26.155Z,15.20
2022-09-11T02:02:05.146Z,15.30
2022-09-11T02:04:39.023Z,15.40
2022-09-11T02:07:10.278Z,15.40
2022-09-11T02:09:42.215Z,15.40
2022-09-11T02:12:13.978Z,15.40
2022-09-11T02:14:47.300Z,15.40
2022-09-11T02:17:24.559Z,15.40
2022-09-11T02:19:54.449Z,15.40
2022-09-11T02:22:22.417Z,15.50
2022-09-11T02:24:50.801Z,15.50
2022-09-11T02:27:22.368Z,15.50
2022-09-11T02:29:53.207Z,15.50
2022-09-11T02:32:21.436Z,15.40
2022-09-11T02:34:50.884Z,15.40
2022-09-11T02:37:31.247Z,15.40
2022-09-11T02:40:37.055Z,15.30
2022-09-11T02:43:26.048Z,15.30
2022-09-11T02:46:19.317Z,15.40
2022-09-11T02:48:57.150Z,15.20
2022-09-11T02:51:33.231Z,15.20
2022-09-11T02:54:13.572Z,15.20
2022-09-11T02:56:46.390Z,15.20
2022-09-11T02:59:19.731Z,15.20
2022-09-11T03:01:51.980Z,15.20
2022-09-11T03:04:20.682Z,15.20
2022-09-11T03:06:49.990Z,15.20
2022-09-11T03:09:18.895Z,15.20
2022-09-11T03:11:47.322Z,15.20
2022-09-11T03:14:16.657Z,15.20
2022-09-11T03:16:44.600Z,15.30
2022-09-11T03:19:14.115Z,15.20
2022-09-11T03:21:42.729Z,15.10
2022-09-11T03:24:13.111Z,15.10
2022-09-11T03:26:41.609Z,15.10
2022-09-11T03:29:09.570Z,15.10
2022-09-11T03:31:39.415Z,15.10
2022-09-11T03:38:03.786Z,15.00
2022-09-11T03:44:08.004Z,15.30
2022-09-11T03:46:36.060Z,15.20
2022-09-11T03:49:04.247Z,15.20
2022-09-11T03:51:35.127Z,15.20
2022-09-11T03:54:04.113Z,15.10
2022-09-11T03:56:35.398Z,15.20
2022-09-11T03:59:03.509Z,15.00
2022-09-11T04:01:42.576Z,15.10
2022-09-11T04:04:14.443Z,15.10
2022-09-11T04:06:51.967Z,15.00
2022-09-11T04:09:23.366Z,15.00
2022-09-11T04:11:51.400Z,15.10
2022-09-11T04:14:19.705Z,15.20
2022-09-11T04:16:50.826Z,15.10
2022-09-11T04:19:18.894Z,15.00
2022-09-11T04:21:48.527Z,15.10
2022-09-11T04:24:16.578Z,15.10
2022-09-11T04:26:45.305Z,15.00
2022-09-11T04:29:13.787Z,15.20
2022-09-11T04:31:43.822Z,14.90
2022-09-11T04:34:12.367Z,15.10
2022-09-11T04:36:40.803Z,15.10
2022-09-11T04:39:14.102Z,15.00
2022-09-11T04:41:42.205Z,15.10
2022-09-11T04:44:12.625Z,15.00
2022-09-11T04:46:41.051Z,15.10
2022-09-11T04:49:11.374Z,15.00
2022-09-11T04:51:40.823Z,14.90
2022-09-11T04:54:15.624Z,15.10
2022-09-11T04:56:43.717Z,15.10
2022-09-11T04:59:19.739Z,15.10
2022-09-11T05:01:50.749Z,15.20
2022-09-11T05:04:22.856Z,15.20
2022-09-11T05:06:53.221Z,15.10
2022-09-11T05:09:27.734Z,15.10
2022-09-11T05:11:57.285Z,15.00
2022-09-11T05:15:29.368Z,15.10
2022-09-11T05:17:58.028Z,15.20
2022-09-11T05:20:26.275Z,15.20
2022-09-11T05:22:54.461Z,15.30
2022-09-11T05:25:25.269Z,15.20
2022-09-11T05:27:53.279Z,15.20
2022-09-11T05:30:22.685Z,15.30
2022-09-11T05:32:55.133Z,15.20
2022-09-11T05:35:26.457Z,15.20
2022-09-11T05:38:03.797Z,15.20
2022-09-11T05:40:50.481Z,15.30
2022-09-11T05:43:19.723Z,15.30
2022-09-11T05:45:57.413Z,15.20
2022-09-11T05:48:25.951Z,15.40
2022-09-11T05:50:54.662Z,15.30
2022-09-11T05:53:24.280Z,15.40
2022-09-11T05:55:53.893Z,15.20
2022-09-11T05:58:21.906Z,15.40
2022-09-11T06:00:50.468Z,15.40
2022-09-11T06:03:19.931Z,15.40
2022-09-11T06:05:47.992Z,15.40
2022-09-11T06:08:15.915Z,15.50
2022-09-11T06:10:47.711Z,15.40
2022-09-11T06:13:17.843Z,15.50
2022-09-11T06:15:47.341Z,15.50
2022-09-11T06:18:31.268Z,15.60
2022-09-11T06:21:00.262Z,15.70
2022-09-11T06:23:28.339Z,15.70
2022-09-11T06:26:03.732Z,15.70
2022-09-11T06:28:31.888Z,15.80
2022-09-11T06:31:01.834Z,15.80
2022-09-11T06:33:34.641Z,15.80
2022-09-11T06:36:04.977Z,15.90
2022-09-11T06:38:33.410Z,16.00
2022-09-11T06:41:03.922Z,16.00
2022-09-11T06:43:32.920Z,16.00
2022-09-11T06:46:05.187Z,16.00
2022-09-11T06:48:34.594Z,16.00
2022-09-11T06:51:06.314Z,16.10
2022-09-11T06:53:34.457Z,16.00
2022-09-11T06:56:03.343Z,16.10
2022-09-11T06:58:31.879Z,16.20
2022-09-11T07:01:04.519Z,16.20
2022-09-11T07:03:34.425Z,16.20
2022-09-11T07:06:02.668Z,16.20
2022-09-11T07:08:30.826Z,16.20
2022-09-11T07:11:04.517Z,16.20
2022-09-11T07:13:37.419Z,16.30
2022-09-11T07:16:08.706Z,16.30
2022-09-11T07:18:39.727Z,16.40
2022-09-11T07:21:09.309Z,16.40
2022-09-11T07:23:37.201Z,16.40
2022-09-11T07:26:06.116Z,16.40
2022-09-11T07:28:34.456Z,16.60
2022-09-11T07:31:07.214Z,16.80
2022-09-11T07:33:35.191Z,16.80
2022-09-11T07:36:12.156Z,16.80
2022-09-11T07:38:41.495Z,16.90
2022-09-11T07:41:10.081Z,16.90
2022-09-11T07:43:38.591Z,16.80
2022-09-11T07:46:07.700Z,16.80
2022-09-11T07:48:35.579Z,16.80
2022-09-11T07:51:05.265Z,16.80
2022-09-11T07:53:35.722Z,16.90
2022-09-11T07:56:04.882Z,17.00
2022-09-11T07:58:35.147Z,17.10
2022-09-11T08:01:05.267Z,17.10
2022-09-11T08:03:33.429Z,17.20
2022-09-11T08:06:02.459Z,17.30
2022-09-11T08:08:31.313Z,17.50
2022-09-11T08:11:05.376Z,17.60
2022-09-11T08:13:33.762Z,17.70
2022-09-11T08:16:01.802Z,17.70
2022-09-11T08:18:29.907Z,17.70
2022-09-11T08:21:03.372Z,17.70
2022-09-11T08:23:32.440Z,17.70
2022-09-11T08:26:06.769Z,17.70
2022-09-11T08:28:35.657Z,17.80
2022-09-11T08:31:04.119Z,17.60
2022-09-11T08:33:33.367Z,17.70
2022-09-11T08:36:02.133Z,17.70
2022-09-11T08:38:30.489Z,17.70
2022-09-11T08:41:00.075Z,17.70
2022-09-11T08:43:34.367Z,17.60
2022-09-11T08:46:07.790Z,17.50
2022-09-11T08:48:45.324Z,17.60
2022-09-11T08:51:17.430Z,17.70
2022-09-11T08:53:46.475Z,17.80
2022-09-11T08:56:19.078Z,17.80
2022-09-11T08:59:04.543Z,17.90
2022-09-11T09:01:39.942Z,18.00
2022-09-11T09:04:29.624Z,18.00
2022-09-11T09:07:06.862Z,18.00
2022-09-11T09:09:44.046Z,18.20
2022-09-11T09:12:20.918Z,18.20
2022-09-11T09:15:09.047Z,18.30
2022-09-11T09:17:41.542Z,18.40
2022-09-11T09:20:14.093Z,18.40
2022-09-11T09:22:49.023Z,18.40
2022-09-11T09:25:21.211Z,18.30
2022-09-11T09:27:51.503Z,18.30
2022-09-11T09:30:24.471Z,18.20
2022-09-11T09:32:56.751Z,18.30
2022-09-11T09:35:29.779Z,18.20
2022-09-11T09:37:57.767Z,18.10
2022-09-11T09:40:27.392Z,18.00
2022-09-11T09:43:18.024Z,18.10
2022-09-11T09:46:01.683Z,18.20
2022-09-11T09:48:35.207Z,18.30
2022-09-11T09:51:04.354Z,18.30
2022-09-11T09:53:37.878Z,18.40
2022-09-11T09:56:07.130Z,18.40
2022-09-11T09:58:40.203Z,18.50
2022-09-11T10:01:46.528Z,18.40
2022-09-11T10:04:17.857Z,18.10
2022-09-11T10:06:47.357Z,18.00
2022-09-11T10:09:26.929Z,17.90
2022-09-11T10:11:58.345Z,17.80
2022-09-11T10:14:49.782Z,17.60
2022-09-11T10:17:24.632Z,17.30
2022-09-11T10:19:55.692Z,17.10
2022-09-11T10:22:26.200Z,17.00
2022-09-11T10:25:01.691Z,16.90
2022-09-11T10:27:31.552Z,16.80
2022-09-11T10:30:00.473Z,16.80
2022-09-11T10:32:30.678Z,16.70
2022-09-11T10:34:59.691Z,16.60
2022-09-11T10:37:31.013Z,16.70
2022-09-11T10:40:06.605Z,16.80
2022-09-11T10:42:37.979Z,17.00
2022-09-11T10:45:13.049Z,17.30
2022-09-11T10:47:42.538Z,17.40
2022-09-11T10:50:23.487Z,17.70
2022-09-11T10:53:16.438Z,17.80
2022-09-11T10:55:57.739Z,17.90
2022-09-11T10:58:31.762Z,17.90
2022-09-11T11:00:59.721Z,18.10
2022-09-11T11:03:30.053Z,18.20
2022-09-11T11:06:08.274Z,18.60
2022-09-11T11:08:57.427Z,19.20
2022-09-11T11:11:41.761Z,19.90
2022-09-11T11:14:44.109Z,20.00
2022-09-11T11:17:22.675Z,19.90
2022-09-11T11:20:10.936Z,19.70
2022-09-11T11:23:07.732Z,19.60
2022-09-11T11:25:43.902Z,19.50
2022-09-11T11:28:34.436Z,19.50
2022-09-11T11:31:16.555Z,19.50
2022-09-11T11:34:02.610Z,19.00
2022-09-11T11:36:37.359Z,18.70
2022-09-11T11:39:16.547Z,18.30
2022-09-11T11:41:48.044Z,18.20
2022-09-11T11:44:22.366Z,18.20
2022-09-11T11:46:55.586Z,18.10
2022-09-11T11:49:35.469Z,18.20
2022-09-11T11:52:16.559Z,18.20
2022-09-11T11:54:49.958Z,18.30
2022-09-11T11:57:23.236Z,18.40
2022-09-11T12:00:00.107Z,18.60
2022-09-11T12:02:35.369Z,18.60
2022-09-11T12:05:06.894Z,18.80
2022-09-11T12:07:39.755Z,19.10
2022-09-11T12:10:19.297Z,19.20
2022-09-11T12:12:50.785Z,19.30
2022-09-11T12:15:21.856Z,19.30
2022-09-11T12:18:03.490Z,19.40
2022-09-11T12:20:40.788Z,19.40
2022-09-11T12:23:35.463Z,19.40
2022-09-11T12:26:18.293Z,19.60
2022-09-11T12:28:47.303Z,19.90
2022-09-11T12:31:16.218Z,20.00
2022-09-11T12:33:58.390Z,20.00
2022-09-11T12:36:49.808Z,20.10
2022-09-11T12:39:28.972Z,19.80
2022-09-11T12:42:30.328Z,19.70
2022-09-11T12:44:59.787Z,19.60
2022-09-11T12:47:31.222Z,19.60
2022-09-11T12:50:08.101Z,19.70
2022-09-11T12:52:42.798Z,19.60
2022-09-11T12:55:31.323Z,19.60
2022-09-11T12:58:03.436Z,19.70
2022-09-11T13:00:41.696Z,19.80
2022-09-11T13:03:20.247Z,19.90
2022-09-11T13:05:55.333Z,19.80
2022-09-11T13:08:27.779Z,20.00
2022-09-11T13:11:36.048Z,20.00
2022-09-11T13:14:04.605Z,20.10
2022-09-11T13:16:34.757Z,19.90
2022-09-11T13:19:13.771Z,19.90
2022-09-11T13:21:42.927Z,19.80
2022-09-11T13:24:25.719Z,19.70
2022-09-11T13:26:58.178Z,19.60
2022-09-11T13:29:29.137Z,19.90
2022-09-11T13:31:58.909Z,19.90
2022-09-11T13:34:30.443Z,19.90
2022-09-11T13:36:59.882Z,20.10
2022-09-11T13:39:28.633Z,20.20
2022-09-11T13:42:02.718Z,20.20
2022-09-11T13:44:40.014Z,20.10
2022-09-11T13:47:20.019Z,20.10
2022-09-11T13:49:48.586Z,20.20
2022-09-11T13:52:18.284Z,20.20
2022-09-11T13:54:50.249Z,20.20
2022-09-11T13:57:21.851Z,20.20
2022-09-11T13:59:53.628Z,20.20
2022-09-11T14:02:54.693Z,20.20
2022-09-11T14:05:26.102Z,20.10
2022-09-11T14:07:59.707Z,20.20
2022-09-11T14:10:31.186Z,20.20
2022-09-11T14:13:06.246Z,20.20
2022-09-11T14:15:40.049Z,20.30
2022-09-11T14:18:14.364Z,20.30
2022-09-11T14:20:45.819Z,20.30
2022-09-11T14:23:20.660Z,20.10
2022-09-11T14:26:10.066Z,20.10
2022-09-11T14:28:45.790Z,20.00
2022-09-11T14:31:15.167Z,20.10
2022-09-11T14:33:43.148Z,20.10
2022-09-11T14:36:17.967Z,20.10
2022-09-11T14:38:47.468Z,20.10
2022-09-11T14:41:15.455Z,20.20
2022-09-11T14:43:48.879Z,20.30
2022-09-11T14:46:17.414Z,20.40
2022-09-11T14:48:45.526Z,20.40
2022-09-11T14:51:13.959Z,20.40
2022-09-11T14:53:43.985Z,20.20
2022-09-11T14:56:12.044Z,20.30
2022-09-11T14:58:39.901Z,20.30
2022-09-11T15:01:13.604Z,20.20
2022-09-11T15:03:41.901Z,20.10
2022-09-11T15:06:20.701Z,20.10
2022-09-11T15:08:49.022Z,20.00
2022-09-11T15:11:16.987Z,19.80
2022-09-11T15:14:10.936Z,19.70
2022-09-11T15:16:35.540Z,19.70
2022-09-11T15:19:03.715Z,19.80
2022-09-11T15:21:36.749Z,19.80
2022-09-11T15:24:06.614Z,19.80
2022-09-11T15:26:35.779Z,19.90
2022-09-11T15:29:04.622Z,19.90
2022-09-11T15:31:33.398Z,19.80
2022-09-11T15:34:05.087Z,19.90
2022-09-11T15:36:33.180Z,20.00
2022-09-11T15:39:01.293Z,20.10
2022-09-11T15:41:30.441Z,20.00
2022-09-11T15:43:58.667Z,20.00
2022-09-11T15:46:27.085Z,20.10
2022-09-11T15:48:55.092Z,20.10
2022-09-11T15:51:24.732Z,20.00
2022-09-11T15:53:53.402Z,20.00
2022-09-11T15:56:26.870Z,20.00
2022-09-11T15:59:05.360Z,20.00
2022-09-11T16:01:41.247Z,19.90
2022-09-11T16:04:11.667Z,20.00
2022-09-11T16:06:42.904Z,20.00
2022-09-11T16:09:14.346Z,20.10
2022-09-11T16:11:43.185Z,19.90
2022-09-11T16:14:17.707Z,19.80
2022-09-11T16:16:47.209Z,19.70
2022-09-11T16:19:15.535Z,19.70
2022-09-11T16:21:45.042Z,19.80
2022-09-11T16:24:14.743Z,19.80
2022-09-11T16:26:44.237Z,19.70
2022-09-11T16:29:14.830Z,19.60
2022-09-11T16:31:43.345Z,19.50
2022-09-11T16:34:12.099Z,19.50
2022-09-11T16:36:41.751Z,19.30
2022-09-11T16:39:12.904Z,19.20
2022-09-11T16:41:41.024Z,19.20
2022-09-11T16:44:11.726Z,19.10
2022-09-11T16:46:40.727Z,19.10
2022-09-11T16:49:09.317Z,19.00
2022-09-11T16:51:37.510Z,19.10
2022-09-11T16:54:05.577Z,19.10
2022-09-11T16:56:34.835Z,18.90
2022-09-11T16:59:03.218Z,18.90
2022-09-11T17:01:31.101Z,18.90
2022-09-11T17:03:59.280Z,19.00
2022-09-11T17:06:30.121Z,18.90
2022-09-11T17:09:00.389Z,18.90
2022-09-11T17:11:30.236Z,18.90
2022-09-11T17:14:01.584Z,18.90
2022-09-11T17:16:32.138Z,18.90
2022-09-11T17:19:01.694Z,18.90
2022-09-11T17:21:35.745Z,18.80
2022-09-11T17:24:05.927Z,18.70
2022-09-11T17:26:34.361Z,18.70
2022-09-11T17:29:05.713Z,18.70
2022-09-11T17:31:33.797Z,18.60
2022-09-11T17:34:02.101Z,18.50
2022-09-11T17:36:30.183Z,18.50
2022-09-11T17:38:59.428Z,18.40
2022-09-11T17:41:27.547Z,18.30
2022-09-11T17:43:55.419Z,18.40
2022-09-11T17:46:25.228Z,18.40
2022-09-11T17:48:53.344Z,18.30
2022-09-11T17:51:24.458Z,18.30
2022-09-11T17:53:55.335Z,18.30
2022-09-11T17:56:30.660Z,18.30
2022-09-11T17:59:00.514Z,18.30
2022-09-11T18:01:31.471Z,18.30
2022-09-11T18:04:00.382Z,18.20
2022-09-11T18:06:29.790Z,18.30
2022-09-11T18:09:01.812Z,18.20
2022-09-11T18:11:30.506Z,18.30
2022-09-11T18:14:00.043Z,18.30
2022-09-11T18:16:29.708Z,18.40
2022-09-11T18:18:57.624Z,18.30
2022-09-11T18:21:26.048Z,18.20
2022-09-11T18:23:54.784Z,18.20
2022-09-11T18:26:25.715Z,18.20
2022-09-11T18:29:00.128Z,18.20
2022-09-11T18:31:30.511Z,18.10
2022-09-11T18:34:00.366Z,18.20
2022-09-11T18:36:30.515Z,18.20
2022-09-11T18:39:01.040Z,18.10
2022-09-11T18:41:30.821Z,18.00
2022-09-11T18:44:00.543Z,18.00
2022-09-11T18:46:31.744Z,17.90
2022-09-11T18:49:00.178Z,17.90
2022-09-11T18:51:28.647Z,17.90
2022-09-11T18:53:57.263Z,17.80
2022-09-11T18:56:27.158Z,17.80
2022-09-11T18:58:56.090Z,17.80
2022-09-11T19:01:25.926Z,17.70
2022-09-11T19:03:55.451Z,17.60
2022-09-11T19:06:26.041Z,17.60
2022-09-11T19:08:55.899Z,17.60
2022-09-11T19:11:25.576Z,17.60
2022-09-11T19:13:56.666Z,17.50
2022-09-11T19:16:24.733Z,17.40
2022-09-11T19:18:52.639Z,17.40
2022-09-11T19:21:23.555Z,17.30
2022-09-11T19:23:55.835Z,17.20
2022-09-11T19:26:26.016Z,17.20
2022-09-11T19:28:55.741Z,17.30
2022-09-11T19:31:25.560Z,17.20
2022-09-11T19:33:55.700Z,17.10
2022-09-11T19:36:26.719Z,17.10
2022-09-11T19:39:00.541Z,17.10
2022-09-11T19:41:30.689Z,17.10
2022-09-11T19:44:01.434Z,17.20
2022-09-11T19:46:31.340Z,17.00
2022-09-11T19:49:01.439Z,16.90
2022-09-11T19:51:32.925Z,16.90
2022-09-11T19:54:02.702Z,16.90
2022-09-11T19:56:32.071Z,16.80
2022-09-11T19:59:00.592Z,16.70
2022-09-11T20:01:30.364Z,16.80
2022-09-11T20:04:00.565Z,16.70
2022-09-11T20:06:33.416Z,16.70
2022-09-11T20:11:50.100Z,16.60
2022-09-11T20:14:18.290Z,16.60
2022-09-11T20:16:46.191Z,16.50
2022-09-11T20:19:15.184Z,16.50
2022-09-11T20:21:44.573Z,16.50
2022-09-11T20:24:12.573Z,16.40
2022-09-11T20:26:40.432Z,16.40
2022-09-11T20:29:12.937Z,16.40
2022-09-11T20:31:47.806Z,16.40
2022-09-11T20:34:16.667Z,16.40
2022-09-11T20:36:46.418Z,16.30
2022-09-11T20:39:15.101Z,16.30
2022-09-11T20:41:43.115Z,16.20
2022-09-11T20:44:12.739Z,16.30
2022-09-11T20:46:40.723Z,16.30
2022-09-11T20:49:08.683Z,16.30
2022-09-11T20:51:36.708Z,16.30
2022-09-11T20:54:06.258Z,16.30
2022-09-11T20:56:34.350Z,16.30
2022-09-11T20:59:02.231Z,16.20
2022-09-11T21:01:33.116Z,16.20
2022-09-11T21:04:03.139Z,16.20
2022-09-11T21:06:32.861Z,16.20
2022-09-11T21:09:02.990Z,16.10
2022-09-11T21:11:32.236Z,16.10
2022-09-11T21:14:00.486Z,16.00
2022-09-11T21:16:28.543Z,16.00
2022-09-11T21:18:58.480Z,16.00
2022-09-11T21:21:27.782Z,16.00
2022-09-11T21:23:55.923Z,15.90
2022-09-11T21:26:26.157Z,16.00
2022-09-11T21:28:55.687Z,15.90
2022-09-11T21:31:23.866Z,15.90
2022-09-11T21:33:52.526Z,15.90
2022-09-11T21:36:20.383Z,15.90
2022-09-11T21:38:48.445Z,15.90
2022-09-11T21:41:16.613Z,15.90
2022-09-11T21:43:44.840Z,15.90
2022-09-11T21:46:14.205Z,15.80
2022-09-11T21:48:43.070Z,15.70
2022-09-11T21:51:13.158Z,15.70
2022-09-11T21:53:42.802Z,15.70
2022-09-11T21:56:18.297Z,15.70
2022-09-11T21:58:46.511Z,15.70
2022-09-11T22:01:15.873Z,15.70
2022-09-11T22:03:43.999Z,15.70
2022-09-11T22:06:13.265Z,15.60
2022-09-11T22:08:42.648Z,15.60
2022-09-11T22:11:11.586Z,15.70
2022-09-11T22:13:39.763Z,15.70
2022-09-11T22:16:09.902Z,15.60
2022-09-11T22:18:40.400Z,15.50
2022-09-11T22:21:09.443Z,15.60
2022-09-11T22:23:37.653Z,15.40
2022-09-11T22:26:08.097Z,15.40
2022-09-11T22:28:36.469Z,15.40
2022-09-11T22:31:08.824Z,15.30
2022-09-11T22:33:41.035Z,15.30
2022-09-11T22:36:11.315Z,15.20
2022-09-11T22:38:39.437Z,15.30
2022-09-11T22:41:08.570Z,15.30
2022-09-11T22:43:36.520Z,15.30
2022-09-11T22:46:04.639Z,15.10
2022-09-11T22:48:33.187Z,15.10
2022-09-11T22:51:02.677Z,15.10
2022-09-11T22:53:31.679Z,15.10
2022-09-11T22:56:00.292Z,15.00
2022-09-11T22:58:30.654Z,15.00
2022-09-11T23:01:00.672Z,15.00
2022-09-11T23:03:28.837Z,15.00
2022-09-11T23:06:15.069Z,15.00
2022-09-11T23:08:45.865Z,15.00
2022-09-11T23:11:16.001Z,15.00
2022-09-11T23:13:44.402Z,15.00
2022-09-11T23:16:15.623Z,15.00
2022-09-11T23:18:44.171Z,14.90
2022-09-11T23:21:12.537Z,15.00
2022-09-11T23:23:42.973Z,15.00
2022-09-11T23:26:14.095Z,14.90
2022-09-11T23:28:42.572Z,14.90
2022-09-11T23:31:14.423Z,14.90
2022-09-11T23:33:42.940Z,14.90
2022-09-11T23:36:12.819Z,14.90
2022-09-11T23:38:40.881Z,14.90
2022-09-11T23:41:08.934Z,14.80
2022-09-11T23:43:38.322Z,14.80
2022-09-11T23:46:06.376Z,14.80
2022-09-11T23:48:34.767Z,14.80
2022-09-11T23:51:02.742Z,14.70
2022-09-11T23:53:31.316Z,14.80
2022-09-11T23:56:00.027Z,14.80
2022-09-11T23:58:28.042Z,14.80
